createdAt,value
2022-12-01T00:01:57.022Z,98087.22
2022-12-01T00:04:23.600Z,98087.16
2022-12-01T00:06:50.041Z,98089.09
2022-12-01T00:09:35.269Z,98091.00
2022-12-01T00:12:01.697Z,98081.75
2022-12-01T00:14:28.124Z,98087.44
2022-12-01T00:16:54.625Z,98083.06
2022-12-01T00:19:24.222Z,98077.53
2022-12-01T00:21:50.650Z,98084.38
2022-12-01T00:24:17.112Z,98091.22
2022-12-01T00:26:43.548Z,98085.94
2022-12-01T00:29:10.902Z,98088.75
2022-12-01T00:31:37.517Z,98086.34
2022-12-01T00:34:09.479Z,98093.13
2022-12-01T00:36:37.728Z,98104.41
2022-12-01T00:39:04.193Z,98100.38
2022-12-01T00:41:30.628Z,98107.34
2022-12-01T00:43:57.141Z,98111.25
2022-12-01T00:46:24.015Z,98116.72
2022-12-01T00:48:50.489Z,98107.84
2022-12-01T00:51:16.980Z,98109.22
2022-12-01T00:53:43.468Z,98115.31
2022-12-01T00:56:10.158Z,98104.16
2022-12-01T00:58:36.649Z,98111.09
2022-12-01T01:01:03.895Z,98106.75
2022-12-01T01:03:30.884Z,98104.00
2022-12-01T01:06:03.123Z,98110.03
2022-12-01T01:08:29.587Z,98107.78
2022-12-01T01:10:59.028Z,98107.81
2022-12-01T01:13:25.581Z,98109.53
2022-12-01T01:15:59.782Z,98107.84
2022-12-01T01:18:26.290Z,98108.66
2022-12-01T01:20:57.307Z,98107.00
2022-12-01T01:23:23.789Z,98101.34
2022-12-01T01:25:50.272Z,98097.09
2022-12-01T01:28:16.787Z,98095.19
2022-12-01T01:30:43.208Z,98094.78
2022-12-01T01:33:10.263Z,98096.13
2022-12-01T01:35:36.736Z,98094.38
2022-12-01T01:38:03.481Z,98089.56
2022-12-01T01:40:29.936Z,98089.47
2022-12-01T01:42:56.362Z,98095.44
2022-12-01T01:45:24.335Z,98097.59
2022-12-01T01:47:52.594Z,98102.94
2022-12-01T01:50:21.340Z,98096.72
2022-12-01T01:52:53.437Z,98098.47
2022-12-01T01:55:19.949Z,98101.03
2022-12-01T01:57:46.628Z,98105.84
2022-12-01T02:00:14.777Z,98090.19
2022-12-01T02:02:44.418Z,98099.56
2022-12-01T02:05:19.390Z,98098.44
2022-12-01T02:07:46.827Z,98101.28
2022-12-01T02:10:14.314Z,98101.94
2022-12-01T02:12:56.170Z,98108.31
2022-12-01T02:15:37.444Z,98105.47
2022-12-01T02:18:06.870Z,98112.47
2022-12-01T02:20:57.065Z,98110.22
2022-12-01T02:23:29.324Z,98106.06
2022-12-01T02:25:56.048Z,98103.16
2022-12-01T02:28:34.859Z,98104.91
2022-12-01T02:31:05.319Z,98106.59
2022-12-01T02:33:51.359Z,98111.94
2022-12-01T02:36:26.057Z,98103.41
2022-12-01T02:38:56.174Z,98110.56
2022-12-01T02:41:29.497Z,98108.13
2022-12-01T02:44:07.184Z,98106.63
2022-12-01T02:46:44.358Z,98108.00
2022-12-01T02:49:16.006Z,98102.81
2022-12-01T02:51:44.710Z,98100.97
2022-12-01T02:54:12.277Z,98101.53
2022-12-01T02:56:38.778Z,98095.97
2022-12-01T02:59:12.505Z,98099.47
2022-12-01T03:01:52.552Z,98097.47
2022-12-01T03:04:28.572Z,98088.38
2022-12-01T03:07:15.592Z,98095.50
2022-12-01T03:09:48.525Z,98078.66
2022-12-01T03:12:21.055Z,98089.53
2022-12-01T03:14:57.956Z,98090.19
2022-12-01T03:17:28.260Z,98091.91
2022-12-01T03:19:58.476Z,98084.00
2022-12-01T03:22:37.925Z,98083.47
2022-12-01T03:25:05.018Z,98084.94
2022-12-01T03:27:33.458Z,98090.41
2022-12-01T03:30:01.156Z,98091.56
2022-12-01T03:32:31.938Z,98089.44
2022-12-01T03:35:11.075Z,98081.03
2022-12-01T03:37:43.409Z,98086.78
2022-12-01T03:40:12.167Z,98097.22
2022-12-01T03:42:44.473Z,98094.78
2022-12-01T03:45:24.379Z,98084.84
2022-12-01T03:47:51.657Z,98091.56
2022-12-01T03:50:18.640Z,98098.94
2022-12-01T03:53:07.093Z,98090.41
2022-12-01T03:55:37.901Z,98091.47
2022-12-01T03:58:22.996Z,98092.81
2022-12-01T04:00:53.139Z,98098.06
2022-12-01T04:03:20.526Z,98101.91
2022-12-01T04:05:47.019Z,98101.16
2022-12-01T04:08:13.489Z,98093.97
2022-12-01T04:10:39.955Z,98086.94
2022-12-01T04:13:11.842Z,98097.09
2022-12-01T04:15:38.340Z,98089.25
2022-12-01T04:18:05.037Z,98087.56
2022-12-01T04:20:31.558Z,98085.03
2022-12-01T04:22:58.028Z,98087.78
2022-12-01T04:25:24.474Z,98079.88
2022-12-01T04:27:50.938Z,98073.19
2022-12-01T04:30:17.509Z,98068.72
2022-12-01T04:32:44.229Z,98068.38
2022-12-01T04:35:12.232Z,98075.66
2022-12-01T04:37:39.213Z,98076.81
2022-12-01T04:40:06.209Z,98073.06
2022-12-01T04:42:32.805Z,98072.00
2022-12-01T04:44:59.243Z,98074.81
2022-12-01T04:47:25.701Z,98082.41
2022-12-01T04:49:52.339Z,98073.66
2022-12-01T04:52:18.854Z,98078.56
2022-12-01T04:54:45.343Z,98083.13
2022-12-01T04:57:11.918Z,98079.41
2022-12-01T04:59:38.460Z,98073.31
2022-12-01T05:02:05.060Z,98079.63
2022-12-01T05:04:32.588Z,98082.91
2022-12-01T05:06:59.088Z,98078.53
2022-12-01T05:09:25.497Z,98078.91
2022-12-01T05:11:52.005Z,98079.03
2022-12-01T05:14:18.450Z,98087.03
2022-12-01T05:16:44.902Z,98084.22
2022-12-01T05:19:29.976Z,98089.56
2022-12-01T05:21:56.434Z,98084.09
2022-12-01T05:24:22.968Z,98089.03
2022-12-01T05:26:49.506Z,98092.66
2022-12-01T05:29:15.992Z,98090.13
2022-12-01T05:31:42.638Z,98084.47
2022-12-01T05:34:09.235Z,98083.34
2022-12-01T05:36:36.396Z,98085.63
2022-12-01T05:39:03.111Z,98089.59
2022-12-01T05:41:29.616Z,98090.94
2022-12-01T05:43:56.033Z,98093.16
2022-12-01T05:46:22.596Z,98091.69
2022-12-01T05:48:49.181Z,98093.97
2022-12-01T05:51:16.601Z,98085.88
2022-12-01T05:53:43.596Z,98100.31
2022-12-01T05:56:10.332Z,98093.78
2022-12-01T05:58:36.999Z,98089.25
2022-12-01T06:01:04.094Z,98091.00
2022-12-01T06:03:30.509Z,98096.13
2022-12-01T06:05:56.954Z,98091.88
2022-12-01T06:08:23.586Z,98092.53
2022-12-01T06:10:50.052Z,98091.56
2022-12-01T06:13:16.517Z,98094.63
2022-12-01T06:15:43.041Z,98092.72
2022-12-01T06:18:09.910Z,98094.84
2022-12-01T06:20:36.369Z,98095.00
2022-12-01T06:23:02.947Z,98099.94
2022-12-01T06:25:29.452Z,98102.81
2022-12-01T06:27:57.287Z,98102.63
2022-12-01T06:30:23.914Z,98106.03
2022-12-01T06:32:50.359Z,98106.59
2022-12-01T06:35:16.811Z,98115.16
2022-12-01T06:37:43.275Z,98112.84
2022-12-01T06:40:10.111Z,98109.75
2022-12-01T06:42:36.621Z,98114.88
2022-12-01T06:45:03.227Z,98126.34
2022-12-01T06:47:29.789Z,98122.94
2022-12-01T06:49:56.340Z,98134.47
2022-12-01T06:52:22.819Z,98127.59
2022-12-01T06:54:49.468Z,98128.47
2022-12-01T06:57:16.258Z,98140.66
2022-12-01T06:59:43.073Z,98137.69
2022-12-01T07:02:13.168Z,98137.78
2022-12-01T07:04:39.723Z,98139.09
2022-12-01T07:07:06.449Z,98135.03
2022-12-01T07:09:33.048Z,98138.31
2022-12-01T07:11:59.657Z,98145.59
2022-12-01T07:14:26.856Z,98140.66
2022-12-01T07:16:53.429Z,98148.91
2022-12-01T07:19:20.028Z,98143.09
2022-12-01T07:21:46.484Z,98151.84
2022-12-01T07:24:13.029Z,98152.25
2022-12-01T07:26:41.099Z,98154.69
2022-12-01T07:29:08.651Z,98161.47
2022-12-01T07:31:35.790Z,98165.72
2022-12-01T07:34:02.358Z,98159.38
2022-12-01T07:36:28.823Z,98163.06
2022-12-01T07:38:55.363Z,98158.91
2022-12-01T07:41:21.843Z,98163.47
2022-12-01T07:43:50.319Z,98162.97
2022-12-01T07:46:22.236Z,98165.06
2022-12-01T07:48:50.184Z,98158.91
2022-12-01T07:51:16.833Z,98164.97
2022-12-01T07:53:44.260Z,98166.28
2022-12-01T07:56:11.029Z,98169.25
2022-12-01T07:58:37.751Z,98167.91
2022-12-01T08:01:08.391Z,98166.59
2022-12-01T08:03:35.114Z,98169.50
2022-12-01T08:06:01.998Z,98159.84
2022-12-01T08:08:29.838Z,98172.38
2022-12-01T08:10:59.359Z,98170.50
2022-12-01T08:13:25.881Z,98176.38
2022-12-01T08:15:52.447Z,98173.31
2022-12-01T08:18:18.934Z,98175.75
2022-12-01T08:20:45.394Z,98169.66
2022-12-01T08:23:11.845Z,98171.03
2022-12-01T08:25:38.257Z,98172.03
2022-12-01T08:28:04.881Z,98170.81
2022-12-01T08:30:31.350Z,98178.72
2022-12-01T08:32:58.934Z,98174.66
2022-12-01T08:35:25.434Z,98175.97
2022-12-01T08:37:52.860Z,98187.97
2022-12-01T08:40:19.729Z,98182.72
2022-12-01T08:42:46.191Z,98184.06
2022-12-01T08:45:12.708Z,98181.31
2022-12-01T08:47:39.887Z,98176.78
2022-12-01T08:50:06.633Z,98181.75
2022-12-01T08:52:33.960Z,98187.72
2022-12-01T08:55:00.401Z,98181.28
2022-12-01T08:57:28.625Z,98186.16
2022-12-01T08:59:55.106Z,98187.47
2022-12-01T09:02:24.711Z,98190.22
2022-12-01T09:04:51.256Z,98190.75
2022-12-01T09:07:24.456Z,98187.38
2022-12-01T09:09:52.921Z,98185.06
2022-12-01T09:12:19.636Z,98188.38
2022-12-01T09:14:48.367Z,98189.03
2022-12-01T09:17:15.855Z,98187.84
2022-12-01T09:19:42.681Z,98187.25
2022-12-01T09:22:09.761Z,98187.31
2022-12-01T09:24:36.337Z,98189.16
2022-12-01T09:27:03.469Z,98184.22
2022-12-01T09:29:30.373Z,98189.28
2022-12-01T09:31:57.458Z,98186.44
2022-12-01T09:34:24.118Z,98192.16
2022-12-01T09:36:50.534Z,98185.25
2022-12-01T09:39:18.525Z,98182.22
2022-12-01T09:41:45.265Z,98182.22
2022-12-01T09:44:22.771Z,98187.59
2022-12-01T09:46:49.366Z,98186.69
2022-12-01T09:49:18.827Z,98185.41
2022-12-01T09:51:45.325Z,98181.59
2022-12-01T09:54:13.446Z,98183.75
2022-12-01T09:56:43.640Z,98175.66
2022-12-01T09:59:13.907Z,98177.56
2022-12-01T10:01:42.734Z,98170.56
2022-12-01T10:04:17.580Z,98170.13
2022-12-01T10:06:48.298Z,98166.81
2022-12-01T10:09:23.298Z,98160.88
2022-12-01T10:11:51.717Z,98160.47
2022-12-01T10:14:20.683Z,98153.97
2022-12-01T10:17:03.608Z,98162.16
2022-12-01T10:19:46.706Z,98154.94
2022-12-01T10:22:19.346Z,98152.31
2022-12-01T10:24:45.781Z,98150.28
2022-12-01T10:27:35.170Z,98161.75
2022-12-01T10:30:15.550Z,98149.00
2022-12-01T10:32:42.024Z,98150.38
2022-12-01T10:35:11.768Z,98140.44
2022-12-01T10:37:38.377Z,98140.25
2022-12-01T10:40:05.295Z,98136.38
2022-12-01T10:42:37.605Z,98136.03
2022-12-01T10:45:05.703Z,98133.25
2022-12-01T10:47:32.156Z,98129.69
2022-12-01T10:49:59.020Z,98134.91
2022-12-01T10:52:28.438Z,98132.06
2022-12-01T10:54:54.880Z,98128.91
2022-12-01T10:57:21.517Z,98125.94
2022-12-01T10:59:48.207Z,98133.00
2022-12-01T11:02:17.824Z,98127.88
2022-12-01T11:05:06.837Z,98129.63
2022-12-01T11:07:33.337Z,98128.94
2022-12-01T11:10:02.918Z,98128.41
2022-12-01T11:12:29.750Z,98124.66
2022-12-01T11:14:57.358Z,98116.72
2022-12-01T11:17:26.864Z,98121.03
2022-12-01T11:19:53.809Z,98122.09
2022-12-01T11:22:22.131Z,98122.09
2022-12-01T11:24:57.908Z,98111.69
2022-12-01T11:27:29.511Z,98112.47
2022-12-01T11:29:57.272Z,98115.25
2022-12-01T11:32:32.005Z,98112.41
2022-12-01T11:35:00.457Z,98111.88
2022-12-01T11:37:29.504Z,98110.81
2022-12-01T11:40:04.777Z,98109.97
2022-12-01T11:42:31.290Z,98117.97
2022-12-01T11:45:02.964Z,98115.00
2022-12-01T11:47:29.607Z,98121.63
2022-12-01T11:49:58.000Z,98106.09
2022-12-01T11:52:27.575Z,98112.50
2022-12-01T11:54:55.239Z,98107.84
2022-12-01T11:57:36.894Z,98112.34
2022-12-01T12:00:29.564Z,98113.50
2022-12-01T12:03:04.478Z,98113.28
2022-12-01T12:05:49.838Z,98110.78
2022-12-01T12:08:28.622Z,98107.91
2022-12-01T12:11:01.089Z,98107.94
2022-12-01T12:13:33.558Z,98106.56
2022-12-01T12:16:12.496Z,98114.06
2022-12-01T12:18:38.910Z,98098.47
2022-12-01T12:21:17.247Z,98101.06
2022-12-01T12:23:49.678Z,98084.13
2022-12-01T12:26:16.088Z,98087.84
2022-12-01T12:29:01.056Z,98097.22
2022-12-01T12:31:43.428Z,98092.50
2022-12-01T12:34:22.776Z,98091.91
2022-12-01T12:36:58.878Z,98087.16
2022-12-01T12:39:40.619Z,98085.25
2022-12-01T12:42:14.905Z,98084.44
2022-12-01T12:45:01.856Z,98088.19
2022-12-01T12:47:34.477Z,98091.00
2022-12-01T12:50:07.372Z,98092.25
2022-12-01T12:52:40.602Z,98084.41
2022-12-01T12:55:13.049Z,98091.66
2022-12-01T12:57:52.336Z,98089.91
2022-12-01T13:00:20.728Z,98095.47
2022-12-01T13:02:50.354Z,98087.59
2022-12-01T13:05:35.692Z,98093.75
2022-12-01T13:08:11.388Z,98095.06
2022-12-01T13:10:59.408Z,98091.66
2022-12-01T13:13:46.084Z,98092.06
2022-12-01T13:16:15.553Z,98085.47
2022-12-01T13:18:47.694Z,98080.78
2022-12-01T13:21:19.414Z,98089.22
2022-12-01T13:23:46.994Z,98077.34
2022-12-01T13:26:14.922Z,98078.78
2022-12-01T13:28:44.165Z,98073.56
2022-12-01T13:31:12.813Z,98074.00
2022-12-01T13:33:41.487Z,98069.19
2022-12-01T13:38:58.330Z,98068.00
2022-12-01T13:41:28.346Z,98073.47
2022-12-01T13:43:57.774Z,98077.38
2022-12-01T13:46:30.648Z,98079.22
2022-12-01T13:48:58.290Z,98075.66
2022-12-01T13:51:25.709Z,98080.06
2022-12-01T13:54:03.276Z,98074.94
2022-12-01T13:56:39.605Z,98067.38
2022-12-01T13:59:27.289Z,98062.63
2022-12-01T14:02:06.093Z,98073.75
2022-12-01T14:04:34.582Z,98072.06
2022-12-01T14:07:16.129Z,98063.31
2022-12-01T14:09:44.021Z,98063.09
2022-12-01T14:12:29.108Z,98069.94
2022-12-01T14:15:04.057Z,98069.50
2022-12-01T14:17:30.565Z,98066.84
2022-12-01T14:20:06.921Z,98064.19
2022-12-01T14:22:41.916Z,98062.22
2022-12-01T14:25:24.158Z,98061.59
2022-12-01T14:27:58.551Z,98059.91
2022-12-01T14:30:45.649Z,98053.38
2022-12-01T14:33:31.050Z,98060.31
2022-12-01T14:36:00.641Z,98053.69
2022-12-01T14:38:28.212Z,98048.13
2022-12-01T14:40:55.052Z,98050.72
2022-12-01T14:43:40.238Z,98055.41
2022-12-01T14:46:08.471Z,98054.34
2022-12-01T14:48:37.888Z,98055.22
2022-12-01T14:51:11.594Z,98050.47
2022-12-01T14:53:40.834Z,98054.34
2022-12-01T14:56:16.257Z,98056.69
2022-12-01T14:58:59.833Z,98056.91
2022-12-01T15:01:34.821Z,98061.50
2022-12-01T15:04:02.325Z,98056.91
2022-12-01T15:06:29.909Z,98049.44
2022-12-01T15:12:00.528Z,98060.72
2022-12-01T15:14:35.620Z,98061.91
2022-12-01T15:17:05.040Z,98066.69
2022-12-01T15:19:39.138Z,98076.50
2022-12-01T15:22:07.517Z,98070.44
2022-12-01T15:24:34.176Z,98072.47
2022-12-01T15:27:03.948Z,98059.47
2022-12-01T15:29:32.360Z,98062.03
2022-12-01T15:32:00.753Z,98069.25
2022-12-01T15:34:30.502Z,98069.66
2022-12-01T15:36:57.745Z,98067.66
2022-12-01T15:39:29.918Z,98065.63
2022-12-01T15:41:56.609Z,98064.75
2022-12-01T15:44:28.106Z,98067.09
2022-12-01T15:46:54.660Z,98063.47
2022-12-01T15:49:27.572Z,98070.75
2022-12-01T15:51:54.870Z,98061.75
2022-12-01T15:54:23.173Z,98059.00
2022-12-01T15:56:56.669Z,98060.31
2022-12-01T15:59:28.639Z,98062.44
2022-12-01T16:01:56.816Z,98054.97
2022-12-01T16:04:25.710Z,98050.84
2022-12-01T16:06:57.465Z,98051.56
2022-12-01T16:09:34.207Z,98056.16
2022-12-01T16:12:04.978Z,98055.75
2022-12-01T16:14:32.266Z,98062.97
2022-12-01T16:16:59.898Z,98059.56
2022-12-01T16:19:29.869Z,98060.56
2022-12-01T16:22:01.714Z,98056.47
2022-12-01T16:24:35.798Z,98060.31
2022-12-01T16:27:04.288Z,98060.53
2022-12-01T16:29:33.787Z,98059.25
2022-12-01T16:32:24.718Z,98060.31
2022-12-01T16:34:52.452Z,98057.13
2022-12-01T16:37:19.658Z,98055.84
2022-12-01T16:39:46.130Z,98063.94
2022-12-01T16:42:16.584Z,98063.63
2022-12-01T16:44:44.752Z,98062.66
2022-12-01T16:47:12.768Z,98058.59
2022-12-01T16:49:39.412Z,98061.28
2022-12-01T16:52:22.023Z,98067.13
2022-12-01T16:54:52.442Z,98061.19
2022-12-01T16:57:18.980Z,98063.50
2022-12-01T16:59:45.403Z,98069.38
2022-12-01T17:02:11.945Z,98060.41
2022-12-01T17:04:38.487Z,98064.69
2022-12-01T17:07:04.996Z,98065.66
2022-12-01T17:09:31.653Z,98068.63
2022-12-01T17:11:59.208Z,98071.66
2022-12-01T17:14:25.738Z,98071.84
2022-12-01T17:16:52.235Z,98065.22
2022-12-01T17:19:21.109Z,98069.94
2022-12-01T17:21:47.537Z,98073.56
2022-12-01T17:24:18.664Z,98069.81
2022-12-01T17:26:45.597Z,98076.56
2022-12-01T17:29:12.095Z,98076.56
2022-12-01T17:31:38.644Z,98068.56
2022-12-01T17:34:05.239Z,98069.81
2022-12-01T17:36:31.726Z,98079.84
2022-12-01T17:38:58.721Z,98078.16
2022-12-01T17:41:32.021Z,98079.09
2022-12-01T17:43:58.602Z,98078.03
2022-12-01T17:46:25.448Z,98076.13
2022-12-01T17:48:52.039Z,98076.66
2022-12-01T17:51:18.498Z,98080.91
2022-12-01T17:53:44.976Z,98081.22
2022-12-01T17:56:12.632Z,98076.56
2022-12-01T17:58:39.535Z,98080.81
2022-12-01T18:01:06.917Z,98088.72
2022-12-01T18:03:33.417Z,98088.06
2022-12-01T18:06:01.722Z,98090.88
2022-12-01T18:08:29.372Z,98084.56
2022-12-01T18:10:55.932Z,98077.81
2022-12-01T18:13:22.664Z,98074.72
2022-12-01T18:15:49.164Z,98078.91
2022-12-01T18:18:15.712Z,98081.03
2022-12-01T18:20:43.484Z,98085.28
2022-12-01T18:23:10.895Z,98081.03
2022-12-01T18:25:37.774Z,98095.66
2022-12-01T18:28:04.773Z,98091.50
2022-12-01T18:30:31.453Z,98082.72
2022-12-01T18:32:59.650Z,98087.34
2022-12-01T18:35:31.576Z,98085.72
2022-12-01T18:37:58.425Z,98082.09
2022-12-01T18:40:26.053Z,98076.75
2022-12-01T18:42:52.510Z,98081.03
2022-12-01T18:45:21.494Z,98080.28
2022-12-01T18:47:48.285Z,98078.25
2022-12-01T18:50:14.911Z,98091.47
2022-12-01T18:52:41.392Z,98082.53
2022-12-01T18:55:08.144Z,98089.06
2022-12-01T18:57:34.547Z,98084.25
2022-12-01T19:00:01.142Z,98087.88
2022-12-01T19:02:27.665Z,98089.34
2022-12-01T19:04:54.222Z,98087.25
2022-12-01T19:07:24.029Z,98087.88
2022-12-01T19:09:55.104Z,98089.69
2022-12-01T19:12:24.110Z,98084.25
2022-12-01T19:14:52.957Z,98089.78
2022-12-01T19:17:20.036Z,98098.41
2022-12-01T19:19:47.450Z,98096.63
2022-12-01T19:22:14.018Z,98095.09
2022-12-01T19:24:40.469Z,98097.78
2022-12-01T19:27:07.001Z,98099.38
2022-12-01T19:29:33.656Z,98097.69
2022-12-01T19:32:00.548Z,98100.66
2022-12-01T19:34:27.437Z,98103.94
2022-12-01T19:36:54.392Z,98101.91
2022-12-01T19:39:20.919Z,98094.78
2022-12-01T19:41:47.415Z,98087.75
2022-12-01T19:44:15.011Z,98094.47
2022-12-01T19:46:41.501Z,98101.50
2022-12-01T19:49:08.001Z,98090.19
2022-12-01T19:51:35.643Z,98086.47
2022-12-01T19:54:02.781Z,98092.16
2022-12-01T19:56:29.480Z,98090.00
2022-12-01T19:58:56.984Z,98086.16
2022-12-01T20:01:23.593Z,98090.84
2022-12-01T20:03:52.196Z,98095.09
2022-12-01T20:06:28.915Z,98091.28
2022-12-01T20:08:57.372Z,98088.50
2022-12-01T20:11:24.413Z,98088.06
2022-12-01T20:13:52.279Z,98084.34
2022-12-01T20:16:20.656Z,98083.16
2022-12-01T20:18:47.798Z,98088.72
2022-12-01T20:21:17.033Z,98084.13
2022-12-01T20:23:44.359Z,98089.34
2022-12-01T20:26:11.357Z,98090.19
2022-12-01T20:28:38.874Z,98094.47
2022-12-01T20:31:10.415Z,98088.50
2022-12-01T20:33:36.877Z,98091.28
2022-12-01T20:36:03.541Z,98085.28
2022-12-01T20:38:30.061Z,98088.50
2022-12-01T20:40:56.654Z,98084.13
2022-12-01T20:43:23.117Z,98082.19
2022-12-01T20:45:49.655Z,98087.66
2022-12-01T20:48:16.428Z,98092.16
2022-12-01T20:50:42.976Z,98095.78
2022-12-01T20:53:09.489Z,98094.91
2022-12-01T20:55:36.835Z,98092.75
2022-12-01T20:58:09.803Z,98088.38
2022-12-01T21:00:40.549Z,98088.28
2022-12-01T21:03:08.073Z,98082.97
2022-12-01T21:05:34.661Z,98080.81
2022-12-01T21:08:01.442Z,98080.81
2022-12-01T21:10:28.385Z,98081.13
2022-12-01T21:13:17.920Z,98081.91
2022-12-01T21:16:00.088Z,98073.56
2022-12-01T21:18:37.462Z,98085.94
2022-12-01T21:21:07.898Z,98078.66
2022-12-01T21:23:34.398Z,98075.91
2022-12-01T21:26:01.308Z,98083.16
2022-12-01T21:28:27.767Z,98083.16
2022-12-01T21:31:11.067Z,98077.59
2022-12-01T21:33:38.934Z,98082.00
2022-12-01T21:36:16.090Z,98073.34
2022-12-01T21:38:43.340Z,98072.72
2022-12-01T21:41:14.854Z,98080.63
2022-12-01T21:43:41.651Z,98080.63
2022-12-01T21:46:15.045Z,98074.00
2022-12-01T21:48:41.748Z,98077.28
2022-12-01T21:51:24.765Z,98077.38
2022-12-01T21:53:52.118Z,98076.94
2022-12-01T21:56:23.940Z,98075.72
2022-12-01T21:58:51.193Z,98076.75
2022-12-01T22:01:26.869Z,98074.41
2022-12-01T22:04:00.517Z,98085.06
2022-12-01T22:06:34.155Z,98073.03
2022-12-01T22:09:02.221Z,98074.19
2022-12-01T22:11:29.771Z,98075.28
2022-12-01T22:14:04.093Z,98070.78
2022-12-01T22:16:31.912Z,98081.25
2022-12-01T22:18:59.363Z,98079.75
2022-12-01T22:21:27.907Z,98081.03
2022-12-01T22:24:01.346Z,98075.28
2022-12-01T22:26:27.921Z,98077.00
2022-12-01T22:28:56.199Z,98077.81
2022-12-01T22:31:23.070Z,98072.91
2022-12-01T22:34:00.036Z,98067.78
2022-12-01T22:36:30.595Z,98063.75
2022-12-01T22:38:57.843Z,98059.47
2022-12-01T22:41:24.466Z,98068.84
2022-12-01T22:44:02.993Z,98063.50
2022-12-01T22:46:34.457Z,98069.25
2022-12-01T22:49:00.972Z,98065.03
2022-12-01T22:51:50.774Z,98060.53
2022-12-01T22:54:17.166Z,98051.56
2022-12-01T22:56:44.749Z,98058.50
2022-12-01T22:59:14.309Z,98056.59
2022-12-01T23:01:46.556Z,98054.97
2022-12-01T23:04:21.106Z,98050.69
2022-12-01T23:06:57.077Z,98045.94
2022-12-01T23:09:26.466Z,98037.91
2022-12-01T23:11:56.195Z,98037.25
2022-12-01T23:14:23.543Z,98035.34
2022-12-01T23:16:52.414Z,98030.22
2022-12-01T23:19:18.918Z,98031.50
2022-12-01T23:21:45.323Z,98028.97
2022-12-01T23:24:18.176Z,98025.13
2022-12-01T23:26:46.074Z,98024.69
2022-12-01T23:29:12.656Z,98007.38
2022-12-01T23:31:39.375Z,98012.94
2022-12-01T23:34:13.704Z,98011.66
2022-12-01T23:36:40.237Z,98001.50
2022-12-01T23:39:10.178Z,98001.59
2022-12-01T23:41:41.976Z,97990.06
2022-12-01T23:44:20.331Z,97998.94
2022-12-01T23:46:48.967Z,98001.19
2022-12-01T23:49:16.708Z,98000.34
2022-12-01T23:51:50.903Z,97992.75
2022-12-01T23:54:17.356Z,97995.75
2022-12-01T23:56:45.202Z,97986.84
2022-12-01T23:59:12.927Z,97993.94
